sensor_id;sensor_type;location;lat;lon;timestamp;temperature;humidity
25983;DHT22;13773;48.868;10.730;2022-08-05T00:01:50;24.60;92.50
25983;DHT22;13773;48.868;10.730;2022-08-05T00:04:16;24.70;92.40
25983;DHT22;13773;48.868;10.730;2022-08-05T00:06:42;24.60;92.50
25983;DHT22;13773;48.868;10.730;2022-08-05T00:09:08;24.60;93.00
25983;DHT22;13773;48.868;10.730;2022-08-05T00:11:34;24.70;92.70
25983;DHT22;13773;48.868;10.730;2022-08-05T00:13:59;24.70;92.70
25983;DHT22;13773;48.868;10.730;2022-08-05T00:16:25;24.90;92.60
25983;DHT22;13773;48.868;10.730;2022-08-05T00:18:52;24.60;93.00
25983;DHT22;13773;48.868;10.730;2022-08-05T00:21:18;24.60;92.90
25983;DHT22;13773;48.868;10.730;2022-08-05T00:23:45;24.50;93.10
25983;DHT22;13773;48.868;10.730;2022-08-05T00:26:11;24.50;93.10
25983;DHT22;13773;48.868;10.730;2022-08-05T00:28:37;24.20;93.40
25983;DHT22;13773;48.868;10.730;2022-08-05T00:31:04;24.20;93.40
25983;DHT22;13773;48.868;10.730;2022-08-05T00:33:33;24.40;93.30
25983;DHT22;13773;48.868;10.730;2022-08-05T00:35:59;23.90;93.80
25983;DHT22;13773;48.868;10.730;2022-08-05T00:38:25;23.80;94.00
25983;DHT22;13773;48.868;10.730;2022-08-05T00:40:53;24.00;93.80
25983;DHT22;13773;48.868;10.730;2022-08-05T00:43:19;24.20;93.70
25983;DHT22;13773;48.868;10.730;2022-08-05T00:45:45;24.40;93.50
25983;DHT22;13773;48.868;10.730;2022-08-05T00:48:17;24.20;93.80
25983;DHT22;13773;48.868;10.730;2022-08-05T00:50:44;24.10;94.00
25983;DHT22;13773;48.868;10.730;2022-08-05T00:53:10;24.40;93.80
25983;DHT22;13773;48.868;10.730;2022-08-05T00:55:36;24.40;93.80
25983;DHT22;13773;48.868;10.730;2022-08-05T00:58:02;24.30;93.80
25983;DHT22;13773;48.868;10.730;2022-08-05T01:00:29;24.50;93.70
25983;DHT22;13773;48.868;10.730;2022-08-05T01:02:56;24.50;93.70
25983;DHT22;13773;48.868;10.730;2022-08-05T01:05:23;24.70;93.40
25983;DHT22;13773;48.868;10.730;2022-08-05T01:07:49;24.70;93.40
25983;DHT22;13773;48.868;10.730;2022-08-05T01:10:19;24.70;93.40
25983;DHT22;13773;48.868;10.730;2022-08-05T01:12:49;24.60;93.50
25983;DHT22;13773;48.868;10.730;2022-08-05T01:15:19;24.50;94.20
25983;DHT22;13773;48.868;10.730;2022-08-05T01:17:52;24.00;94.40
25983;DHT22;13773;48.868;10.730;2022-08-05T01:23:20;24.20;94.00
25983;DHT22;13773;48.868;10.730;2022-08-05T01:26:20;24.20;94.00
25983;DHT22;13773;48.868;10.730;2022-08-05T01:29:04;24.10;94.10
25983;DHT22;13773;48.868;10.730;2022-08-05T01:31:40;23.90;94.40
25983;DHT22;13773;48.868;10.730;2022-08-05T01:36:43;23.60;94.70
25983;DHT22;13773;48.868;10.730;2022-08-05T01:39:12;23.50;94.80
25983;DHT22;13773;48.868;10.730;2022-08-05T01:41:40;23.80;94.60
25983;DHT22;13773;48.868;10.730;2022-08-05T01:44:07;23.70;94.90
25983;DHT22;13773;48.868;10.730;2022-08-05T01:46:34;23.80;94.80
25983;DHT22;13773;48.868;10.730;2022-08-05T01:49:01;23.70;94.80
25983;DHT22;13773;48.868;10.730;2022-08-05T01:51:30;23.60;95.00
25983;DHT22;13773;48.868;10.730;2022-08-05T01:53:58;23.50;95.20
25983;DHT22;13773;48.868;10.730;2022-08-05T01:56:29;23.40;95.20
25983;DHT22;13773;48.868;10.730;2022-08-05T01:58:57;23.30;95.50
25983;DHT22;13773;48.868;10.730;2022-08-05T02:01:26;23.60;95.30
25983;DHT22;13773;48.868;10.730;2022-08-05T02:03:54;23.40;95.30
25983;DHT22;13773;48.868;10.730;2022-08-05T02:06:21;23.30;95.50
25983;DHT22;13773;48.868;10.730;2022-08-05T02:08:47;22.90;95.70
25983;DHT22;13773;48.868;10.730;2022-08-05T02:11:15;22.50;96.20
25983;DHT22;13773;48.868;10.730;2022-08-05T02:13:55;22.10;96.70
25983;DHT22;13773;48.868;10.730;2022-08-05T02:19:04;21.90;97.20
25983;DHT22;13773;48.868;10.730;2022-08-05T02:21:35;21.70;97.60
25983;DHT22;13773;48.868;10.730;2022-08-05T02:24:07;21.50;97.70
25983;DHT22;13773;48.868;10.730;2022-08-05T02:26:45;21.20;98.40
25983;DHT22;13773;48.868;10.730;2022-08-05T02:29:12;21.40;98.60
25983;DHT22;13773;48.868;10.730;2022-08-05T02:31:41;21.50;98.50
25983;DHT22;13773;48.868;10.730;2022-08-05T02:34:09;21.50;98.40
25983;DHT22;13773;48.868;10.730;2022-08-05T02:36:41;21.60;98.30
25983;DHT22;13773;48.868;10.730;2022-08-05T02:39:08;21.60;98.60
25983;DHT22;13773;48.868;10.730;2022-08-05T02:41:35;21.60;98.40
25983;DHT22;13773;48.868;10.730;2022-08-05T02:44:06;21.70;98.30
25983;DHT22;13773;48.868;10.730;2022-08-05T02:46:33;21.70;98.20
25983;DHT22;13773;48.868;10.730;2022-08-05T02:49:00;21.50;98.40
25983;DHT22;13773;48.868;10.730;2022-08-05T02:51:26;21.40;98.70
25983;DHT22;13773;48.868;10.730;2022-08-05T02:53:53;21.30;98.90
25983;DHT22;13773;48.868;10.730;2022-08-05T02:56:19;21.20;98.90
25983;DHT22;13773;48.868;10.730;2022-08-05T02:58:47;21.20;98.90
25983;DHT22;13773;48.868;10.730;2022-08-05T03:01:18;21.10;99.00
25983;DHT22;13773;48.868;10.730;2022-08-05T03:03:49;21.00;99.30
25983;DHT22;13773;48.868;10.730;2022-08-05T03:06:15;21.00;99.30
25983;DHT22;13773;48.868;10.730;2022-08-05T03:08:42;21.10;99.30
25983;DHT22;13773;48.868;10.730;2022-08-05T03:11:18;21.00;99.50
25983;DHT22;13773;48.868;10.730;2022-08-05T03:13:45;20.90;99.60
25983;DHT22;13773;48.868;10.730;2022-08-05T03:16:10;20.70;99.90
25983;DHT22;13773;48.868;10.730;2022-08-05T03:18:36;20.60;99.90
25983;DHT22;13773;48.868;10.730;2022-08-05T03:21:02;20.60;99.90
25983;DHT22;13773;48.868;10.730;2022-08-05T03:23:28;20.60;99.90
25983;DHT22;13773;48.868;10.730;2022-08-05T03:25:54;21.00;99.90
25983;DHT22;13773;48.868;10.730;2022-08-05T03:28:20;21.00;99.90
25983;DHT22;13773;48.868;10.730;2022-08-05T03:30:47;21.00;99.90
25983;DHT22;13773;48.868;10.730;2022-08-05T03:33:13;20.90;99.90
25983;DHT22;13773;48.868;10.730;2022-08-05T03:35:40;21.10;99.90
25983;DHT22;13773;48.868;10.730;2022-08-05T03:38:12;21.00;99.90
25983;DHT22;13773;48.868;10.730;2022-08-05T03:40:43;20.90;99.90
25983;DHT22;13773;48.868;10.730;2022-08-05T03:43:08;20.90;99.90
25983;DHT22;13773;48.868;10.730;2022-08-05T03:45:34;20.80;99.90
25983;DHT22;13773;48.868;10.730;2022-08-05T03:48:00;20.70;99.90
25983;DHT22;13773;48.868;10.730;2022-08-05T03:53:34;20.60;99.90
25983;DHT22;13773;48.868;10.730;2022-08-05T03:56:10;20.50;99.90
25983;DHT22;13773;48.868;10.730;2022-08-05T03:58:38;20.40;99.90
25983;DHT22;13773;48.868;10.730;2022-08-05T04:01:07;20.30;99.90
25983;DHT22;13773;48.868;10.730;2022-08-05T04:03:35;20.40;99.90
25983;DHT22;13773;48.868;10.730;2022-08-05T04:06:05;20.40;99.90
25983;DHT22;13773;48.868;10.730;2022-08-05T04:08:34;20.30;99.90
25983;DHT22;13773;48.868;10.730;2022-08-05T04:11:01;20.30;99.90
25983;DHT22;13773;48.868;10.730;2022-08-05T04:13:28;20.30;99.90
25983;DHT22;13773;48.868;10.730;2022-08-05T04:15:55;20.40;99.90
25983;DHT22;13773;48.868;10.730;2022-08-05T04:18:24;20.50;99.90
25983;DHT22;13773;48.868;10.730;2022-08-05T04:20:54;20.70;99.90
25983;DHT22;13773;48.868;10.730;2022-08-05T04:23:25;20.90;99.90
25983;DHT22;13773;48.868;10.730;2022-08-05T04:25:52;21.10;99.90
25983;DHT22;13773;48.868;10.730;2022-08-05T04:28:19;21.10;99.90
25983;DHT22;13773;48.868;10.730;2022-08-05T04:30:45;21.20;99.90
25983;DHT22;13773;48.868;10.730;2022-08-05T04:33:12;21.30;99.90
25983;DHT22;13773;48.868;10.730;2022-08-05T04:35:38;21.40;99.90
25983;DHT22;13773;48.868;10.730;2022-08-05T04:38:04;21.40;99.90
25983;DHT22;13773;48.868;10.730;2022-08-05T04:40:36;21.40;99.90
25983;DHT22;13773;48.868;10.730;2022-08-05T04:43:03;21.50;99.90
25983;DHT22;13773;48.868;10.730;2022-08-05T04:45:28;21.60;99.90
25983;DHT22;13773;48.868;10.730;2022-08-05T04:48:08;21.70;99.90
25983;DHT22;13773;48.868;10.730;2022-08-05T04:50:46;21.70;99.90
25983;DHT22;13773;48.868;10.730;2022-08-05T04:53:13;21.80;99.90
25983;DHT22;13773;48.868;10.730;2022-08-05T04:55:40;21.90;99.90
25983;DHT22;13773;48.868;10.730;2022-08-05T04:58:07;22.10;99.90
25983;DHT22;13773;48.868;10.730;2022-08-05T05:00:34;22.20;99.90
25983;DHT22;13773;48.868;10.730;2022-08-05T05:03:01;22.30;99.90
25983;DHT22;13773;48.868;10.730;2022-08-05T05:05:28;22.50;99.90
25983;DHT22;13773;48.868;10.730;2022-08-05T05:07:55;22.40;99.90
25983;DHT22;13773;48.868;10.730;2022-08-05T05:10:24;22.50;99.90
25983;DHT22;13773;48.868;10.730;2022-08-05T05:12:49;22.50;99.90
25983;DHT22;13773;48.868;10.730;2022-08-05T05:15:15;22.30;99.90
25983;DHT22;13773;48.868;10.730;2022-08-05T05:17:42;22.10;99.90
25983;DHT22;13773;48.868;10.730;2022-08-05T05:20:12;22.00;99.90
25983;DHT22;13773;48.868;10.730;2022-08-05T05:22:39;22.00;99.90
25983;DHT22;13773;48.868;10.730;2022-08-05T05:25:05;21.90;99.90
25983;DHT22;13773;48.868;10.730;2022-08-05T05:27:32;21.90;99.90
25983;DHT22;13773;48.868;10.730;2022-08-05T05:29:58;22.00;99.90
25983;DHT22;13773;48.868;10.730;2022-08-05T05:32:24;21.90;99.90
25983;DHT22;13773;48.868;10.730;2022-08-05T05:34:50;21.70;99.90
25983;DHT22;13773;48.868;10.730;2022-08-05T05:37:16;21.70;99.90
25983;DHT22;13773;48.868;10.730;2022-08-05T05:39:41;21.60;99.90
25983;DHT22;13773;48.868;10.730;2022-08-05T05:42:07;21.70;99.90
25983;DHT22;13773;48.868;10.730;2022-08-05T05:44:33;22.00;99.90
25983;DHT22;13773;48.868;10.730;2022-08-05T05:46:59;22.40;99.90
25983;DHT22;13773;48.868;10.730;2022-08-05T05:49:25;22.80;99.90
25983;DHT22;13773;48.868;10.730;2022-08-05T05:51:52;22.90;99.90
25983;DHT22;13773;48.868;10.730;2022-08-05T05:54:18;23.30;99.60
25983;DHT22;13773;48.868;10.730;2022-08-05T05:56:43;23.30;99.60
25983;DHT22;13773;48.868;10.730;2022-08-05T05:59:09;23.10;99.70
25983;DHT22;13773;48.868;10.730;2022-08-05T06:01:37;23.10;99.90
25983;DHT22;13773;48.868;10.730;2022-08-05T06:04:03;23.70;99.40
25983;DHT22;13773;48.868;10.730;2022-08-05T06:06:29;23.60;99.40
25983;DHT22;13773;48.868;10.730;2022-08-05T06:08:54;23.80;99.20
25983;DHT22;13773;48.868;10.730;2022-08-05T06:11:20;24.00;99.30
25983;DHT22;13773;48.868;10.730;2022-08-05T06:13:46;24.00;99.10
25983;DHT22;13773;48.868;10.730;2022-08-05T06:16:11;24.00;99.30
25983;DHT22;13773;48.868;10.730;2022-08-05T06:18:37;24.10;99.40
25983;DHT22;13773;48.868;10.730;2022-08-05T06:21:03;24.10;99.30
25983;DHT22;13773;48.868;10.730;2022-08-05T06:23:29;23.50;99.90
25983;DHT22;13773;48.868;10.730;2022-08-05T06:25:56;23.40;99.90
25983;DHT22;13773;48.868;10.730;2022-08-05T06:28:22;23.60;99.90
25983;DHT22;13773;48.868;10.730;2022-08-05T06:30:47;23.60;99.90
25983;DHT22;13773;48.868;10.730;2022-08-05T06:33:13;23.50;99.90
25983;DHT22;13773;48.868;10.730;2022-08-05T06:35:39;23.30;99.90
25983;DHT22;13773;48.868;10.730;2022-08-05T06:38:04;23.10;99.90
25983;DHT22;13773;48.868;10.730;2022-08-05T06:40:30;22.90;99.90
25983;DHT22;13773;48.868;10.730;2022-08-05T06:42:56;22.90;99.90
25983;DHT22;13773;48.868;10.730;2022-08-05T06:45:22;22.90;99.90
25983;DHT22;13773;48.868;10.730;2022-08-05T06:47:48;22.90;99.90
25983;DHT22;13773;48.868;10.730;2022-08-05T06:50:13;23.00;99.90
25983;DHT22;13773;48.868;10.730;2022-08-05T06:52:42;23.60;99.90
25983;DHT22;13773;48.868;10.730;2022-08-05T06:55:07;24.20;99.90
25983;DHT22;13773;48.868;10.730;2022-08-05T06:57:33;24.70;99.90
25983;DHT22;13773;48.868;10.730;2022-08-05T06:59:59;24.50;99.90
25983;DHT22;13773;48.868;10.730;2022-08-05T07:02:24;24.50;99.90
25983;DHT22;13773;48.868;10.730;2022-08-05T07:04:50;24.50;99.90
25983;DHT22;13773;48.868;10.730;2022-08-05T07:07:16;24.60;99.90
25983;DHT22;13773;48.868;10.730;2022-08-05T07:09:42;24.70;99.90
25983;DHT22;13773;48.868;10.730;2022-08-05T07:12:08;24.80;99.90
25983;DHT22;13773;48.868;10.730;2022-08-05T07:14:54;24.70;99.90
25983;DHT22;13773;48.868;10.730;2022-08-05T07:17:38;25.10;99.90
25983;DHT22;13773;48.868;10.730;2022-08-05T07:20:04;25.10;99.90
25983;DHT22;13773;48.868;10.730;2022-08-05T07:22:29;25.10;99.90
25983;DHT22;13773;48.868;10.730;2022-08-05T07:25:02;25.40;99.90
25983;DHT22;13773;48.868;10.730;2022-08-05T07:27:28;25.50;99.90
25983;DHT22;13773;48.868;10.730;2022-08-05T07:29:56;25.20;99.90
25983;DHT22;13773;48.868;10.730;2022-08-05T07:32:22;25.10;99.90
25983;DHT22;13773;48.868;10.730;2022-08-05T07:34:48;24.90;99.90
25983;DHT22;13773;48.868;10.730;2022-08-05T07:37:14;25.00;99.90
25983;DHT22;13773;48.868;10.730;2022-08-05T07:39:39;24.70;99.90
25983;DHT22;13773;48.868;10.730;2022-08-05T07:42:05;24.70;99.90
25983;DHT22;13773;48.868;10.730;2022-08-05T07:44:32;24.90;99.90
25983;DHT22;13773;48.868;10.730;2022-08-05T07:46:58;25.00;99.80
25983;DHT22;13773;48.868;10.730;2022-08-05T07:49:23;24.80;99.80
25983;DHT22;13773;48.868;10.730;2022-08-05T07:51:49;24.90;99.90
25983;DHT22;13773;48.868;10.730;2022-08-05T07:54:15;25.20;99.70
25983;DHT22;13773;48.868;10.730;2022-08-05T07:56:41;25.70;99.00
25983;DHT22;13773;48.868;10.730;2022-08-05T07:59:07;25.60;98.90
25983;DHT22;13773;48.868;10.730;2022-08-05T08:01:33;25.80;98.70
25983;DHT22;13773;48.868;10.730;2022-08-05T08:03:58;25.80;98.10
25983;DHT22;13773;48.868;10.730;2022-08-05T08:06:24;25.90;97.90
25983;DHT22;13773;48.868;10.730;2022-08-05T08:08:50;25.80;97.70
25983;DHT22;13773;48.868;10.730;2022-08-05T08:11:15;26.30;97.70
25983;DHT22;13773;48.868;10.730;2022-08-05T08:13:41;26.70;97.10
25983;DHT22;13773;48.868;10.730;2022-08-05T08:16:07;27.10;96.70
25983;DHT22;13773;48.868;10.730;2022-08-05T08:18:33;27.30;96.20
25983;DHT22;13773;48.868;10.730;2022-08-05T08:20:59;26.90;95.60
25983;DHT22;13773;48.868;10.730;2022-08-05T08:23:24;26.60;95.60
25983;DHT22;13773;48.868;10.730;2022-08-05T08:25:50;26.30;96.00
25983;DHT22;13773;48.868;10.730;2022-08-05T08:28:16;26.40;96.00
25983;DHT22;13773;48.868;10.730;2022-08-05T08:30:41;26.40;96.00
25983;DHT22;13773;48.868;10.730;2022-08-05T08:33:08;26.50;95.90
25983;DHT22;13773;48.868;10.730;2022-08-05T08:35:35;26.50;95.90
25983;DHT22;13773;48.868;10.730;2022-08-05T08:38:01;26.40;95.80
25983;DHT22;13773;48.868;10.730;2022-08-05T08:40:30;26.20;95.80
25983;DHT22;13773;48.868;10.730;2022-08-05T08:42:57;26.40;95.70
25983;DHT22;13773;48.868;10.730;2022-08-05T08:45:23;26.60;95.30
25983;DHT22;13773;48.868;10.730;2022-08-05T08:47:50;26.70;95.30
25983;DHT22;13773;48.868;10.730;2022-08-05T08:50:18;26.70;95.10
25983;DHT22;13773;48.868;10.730;2022-08-05T08:52:50;26.80;95.20
25983;DHT22;13773;48.868;10.730;2022-08-05T08:55:17;26.80;95.30
25983;DHT22;13773;48.868;10.730;2022-08-05T08:57:45;26.90;95.20
25983;DHT22;13773;48.868;10.730;2022-08-05T09:00:12;26.90;95.10
25983;DHT22;13773;48.868;10.730;2022-08-05T09:02:37;27.00;94.80
25983;DHT22;13773;48.868;10.730;2022-08-05T09:05:03;26.90;94.90
25983;DHT22;13773;48.868;10.730;2022-08-05T09:07:29;27.10;94.40
25983;DHT22;13773;48.868;10.730;2022-08-05T09:09:55;27.00;94.00
25983;DHT22;13773;48.868;10.730;2022-08-05T09:12:20;27.40;93.90
25983;DHT22;13773;48.868;10.730;2022-08-05T09:14:47;27.30;93.80
25983;DHT22;13773;48.868;10.730;2022-08-05T09:17:12;27.40;93.70
25983;DHT22;13773;48.868;10.730;2022-08-05T09:19:39;27.40;94.10
25983;DHT22;13773;48.868;10.730;2022-08-05T09:22:04;27.60;93.40
25983;DHT22;13773;48.868;10.730;2022-08-05T09:24:34;27.80;93.00
25983;DHT22;13773;48.868;10.730;2022-08-05T09:27:00;28.00;92.10
25983;DHT22;13773;48.868;10.730;2022-08-05T09:29:42;28.20;91.80
25983;DHT22;13773;48.868;10.730;2022-08-05T09:32:11;28.40;92.10
25983;DHT22;13773;48.868;10.730;2022-08-05T09:37:25;28.60;91.40
25983;DHT22;13773;48.868;10.730;2022-08-05T09:39:51;28.40;91.90
25983;DHT22;13773;48.868;10.730;2022-08-05T09:42:19;28.40;91.50
25983;DHT22;13773;48.868;10.730;2022-08-05T09:44:47;28.40;91.70
25983;DHT22;13773;48.868;10.730;2022-08-05T09:47:25;28.40;91.00
25983;DHT22;13773;48.868;10.730;2022-08-05T09:49:52;28.70;91.00
25983;DHT22;13773;48.868;10.730;2022-08-05T09:52:32;28.80;90.20
25983;DHT22;13773;48.868;10.730;2022-08-05T09:55:04;29.10;90.30
25983;DHT22;13773;48.868;10.730;2022-08-05T09:57:42;29.00;88.60
25983;DHT22;13773;48.868;10.730;2022-08-05T10:00:19;28.80;88.80
25983;DHT22;13773;48.868;10.730;2022-08-05T10:02:48;28.80;89.20
25983;DHT22;13773;48.868;10.730;2022-08-05T10:05:16;28.70;89.30
25983;DHT22;13773;48.868;10.730;2022-08-05T10:08:00;28.50;89.30
25983;DHT22;13773;48.868;10.730;2022-08-05T10:13:11;28.70;88.30
25983;DHT22;13773;48.868;10.730;2022-08-05T10:15:40;28.50;88.80
25983;DHT22;13773;48.868;10.730;2022-08-05T10:18:12;28.70;87.70
25983;DHT22;13773;48.868;10.730;2022-08-05T10:20:46;28.60;87.40
25983;DHT22;13773;48.868;10.730;2022-08-05T10:23:17;28.70;87.70
25983;DHT22;13773;48.868;10.730;2022-08-05T10:25:43;28.60;87.40
25983;DHT22;13773;48.868;10.730;2022-08-05T10:28:09;28.60;87.30
25983;DHT22;13773;48.868;10.730;2022-08-05T10:30:35;29.00;86.80
25983;DHT22;13773;48.868;10.730;2022-08-05T10:33:03;29.00;87.40
25983;DHT22;13773;48.868;10.730;2022-08-05T10:35:30;29.00;87.30
25983;DHT22;13773;48.868;10.730;2022-08-05T10:37:56;29.00;86.70
25983;DHT22;13773;48.868;10.730;2022-08-05T10:41:12;29.00;87.90
25983;DHT22;13773;48.868;10.730;2022-08-05T10:46:16;29.20;87.30
25983;DHT22;13773;48.868;10.730;2022-08-05T10:48:44;29.40;86.60
25983;DHT22;13773;48.868;10.730;2022-08-05T10:51:16;29.50;86.00
25983;DHT22;13773;48.868;10.730;2022-08-05T10:56:11;29.90;84.70
25983;DHT22;13773;48.868;10.730;2022-08-05T10:58:59;29.90;85.20
25983;DHT22;13773;48.868;10.730;2022-08-05T11:09:27;30.30;83.20
25983;DHT22;13773;48.868;10.730;2022-08-05T11:11:54;30.40;84.00
25983;DHT22;13773;48.868;10.730;2022-08-05T11:14:31;30.50;83.10
25983;DHT22;13773;48.868;10.730;2022-08-05T11:17:28;30.80;82.80
25983;DHT22;13773;48.868;10.730;2022-08-05T11:19:59;30.80;82.50
25983;DHT22;13773;48.868;10.730;2022-08-05T11:22:42;31.00;82.00
25983;DHT22;13773;48.868;10.730;2022-08-05T11:36:14;31.10;82.70
25983;DHT22;13773;48.868;10.730;2022-08-05T11:41:14;30.40;82.30
25983;DHT22;13773;48.868;10.730;2022-08-05T11:43:52;30.60;81.30
25983;DHT22;13773;48.868;10.730;2022-08-05T11:46:41;30.50;82.00
25983;DHT22;13773;48.868;10.730;2022-08-05T11:49:11;30.70;82.40
25983;DHT22;13773;48.868;10.730;2022-08-05T11:51:44;31.20;82.10
25983;DHT22;13773;48.868;10.730;2022-08-05T11:54:11;31.10;81.70
25983;DHT22;13773;48.868;10.730;2022-08-05T11:59:20;30.80;82.50
25983;DHT22;13773;48.868;10.730;2022-08-05T12:01:54;30.80;82.10
25983;DHT22;13773;48.868;10.730;2022-08-05T12:04:20;30.90;82.20
25983;DHT22;13773;48.868;10.730;2022-08-05T12:06:46;30.80;81.50
25983;DHT22;13773;48.868;10.730;2022-08-05T12:09:16;30.90;81.60
25983;DHT22;13773;48.868;10.730;2022-08-05T12:11:44;31.00;81.60
25983;DHT22;13773;48.868;10.730;2022-08-05T12:14:10;30.80;81.10
25983;DHT22;13773;48.868;10.730;2022-08-05T12:16:37;30.60;81.80
25983;DHT22;13773;48.868;10.730;2022-08-05T12:19:08;30.90;81.20
25983;DHT22;13773;48.868;10.730;2022-08-05T12:21:45;31.10;80.40
25983;DHT22;13773;48.868;10.730;2022-08-05T12:24:20;30.90;80.70
25983;DHT22;13773;48.868;10.730;2022-08-05T12:26:51;31.20;80.40
25983;DHT22;13773;48.868;10.730;2022-08-05T12:29:22;31.00;79.30
25983;DHT22;13773;48.868;10.730;2022-08-05T12:31:50;31.00;80.20
25983;DHT22;13773;48.868;10.730;2022-08-05T12:34:17;31.10;79.70
25983;DHT22;13773;48.868;10.730;2022-08-05T12:36:44;31.20;79.30
25983;DHT22;13773;48.868;10.730;2022-08-05T12:39:11;31.30;78.70
25983;DHT22;13773;48.868;10.730;2022-08-05T12:41:38;31.40;79.60
25983;DHT22;13773;48.868;10.730;2022-08-05T12:44:09;31.40;80.30
25983;DHT22;13773;48.868;10.730;2022-08-05T12:46:38;31.20;79.60
25983;DHT22;13773;48.868;10.730;2022-08-05T12:52:02;31.40;78.10
25983;DHT22;13773;48.868;10.730;2022-08-05T12:54:30;31.50;78.30
25983;DHT22;13773;48.868;10.730;2022-08-05T12:56:58;31.40;77.70
25983;DHT22;13773;48.868;10.730;2022-08-05T12:59:25;31.20;77.50
25983;DHT22;13773;48.868;10.730;2022-08-05T13:02:03;31.20;77.30
25983;DHT22;13773;48.868;10.730;2022-08-05T13:04:33;31.60;77.60
25983;DHT22;13773;48.868;10.730;2022-08-05T13:07:02;30.50;78.40
25983;DHT22;13773;48.868;10.730;2022-08-05T13:09:29;30.70;79.40
25983;DHT22;13773;48.868;10.730;2022-08-05T13:12:03;31.10;78.40
25983;DHT22;13773;48.868;10.730;2022-08-05T13:15:17;31.50;78.80
25983;DHT22;13773;48.868;10.730;2022-08-05T13:17:25;31.60;77.90
25983;DHT22;13773;48.868;10.730;2022-08-05T13:20:06;31.10;78.50
25983;DHT22;13773;48.868;10.730;2022-08-05T13:22:34;31.30;78.00
25983;DHT22;13773;48.868;10.730;2022-08-05T13:25:02;31.40;78.20
25983;DHT22;13773;48.868;10.730;2022-08-05T13:27:30;31.30;77.80
25983;DHT22;13773;48.868;10.730;2022-08-05T13:29:57;30.60;78.90
25983;DHT22;13773;48.868;10.730;2022-08-05T13:32:23;31.20;79.60
25983;DHT22;13773;48.868;10.730;2022-08-05T13:34:49;31.90;77.80
25983;DHT22;13773;48.868;10.730;2022-08-05T13:37:16;32.20;78.20
25983;DHT22;13773;48.868;10.730;2022-08-05T13:39:42;32.50;77.20
25983;DHT22;13773;48.868;10.730;2022-08-05T13:42:09;32.00;77.30
25983;DHT22;13773;48.868;10.730;2022-08-05T13:44:35;32.10;76.70
25983;DHT22;13773;48.868;10.730;2022-08-05T13:47:01;32.00;76.60
25983;DHT22;13773;48.868;10.730;2022-08-05T13:49:27;31.90;77.50
25983;DHT22;13773;48.868;10.730;2022-08-05T13:51:53;32.00;77.20
25983;DHT22;13773;48.868;10.730;2022-08-05T13:54:19;31.80;77.00
25983;DHT22;13773;48.868;10.730;2022-08-05T13:56:45;31.90;77.10
25983;DHT22;13773;48.868;10.730;2022-08-05T13:59:11;31.80;78.60
25983;DHT22;13773;48.868;10.730;2022-08-05T14:01:38;32.30;76.50
25983;DHT22;13773;48.868;10.730;2022-08-05T14:04:04;32.20;76.10
25983;DHT22;13773;48.868;10.730;2022-08-05T14:06:48;32.30;76.00
25983;DHT22;13773;48.868;10.730;2022-08-05T14:09:14;32.40;76.40
25983;DHT22;13773;48.868;10.730;2022-08-05T14:11:40;32.20;76.30
25983;DHT22;13773;48.868;10.730;2022-08-05T14:14:06;32.30;75.60
25983;DHT22;13773;48.868;10.730;2022-08-05T14:16:32;32.20;76.50
25983;DHT22;13773;48.868;10.730;2022-08-05T14:18:59;32.50;76.40
25983;DHT22;13773;48.868;10.730;2022-08-05T14:21:24;32.50;75.90
25983;DHT22;13773;48.868;10.730;2022-08-05T14:23:50;32.10;77.00
25983;DHT22;13773;48.868;10.730;2022-08-05T14:26:16;32.30;76.00
25983;DHT22;13773;48.868;10.730;2022-08-05T14:28:41;32.50;76.30
25983;DHT22;13773;48.868;10.730;2022-08-05T14:31:07;33.00;76.40
25983;DHT22;13773;48.868;10.730;2022-08-05T14:33:34;33.00;76.80
25983;DHT22;13773;48.868;10.730;2022-08-05T14:35:59;32.70;76.10
25983;DHT22;13773;48.868;10.730;2022-08-05T14:38:26;32.80;75.80
25983;DHT22;13773;48.868;10.730;2022-08-05T14:40:52;33.20;74.90
25983;DHT22;13773;48.868;10.730;2022-08-05T14:43:18;33.00;75.30
25983;DHT22;13773;48.868;10.730;2022-08-05T14:45:44;32.90;75.40
25983;DHT22;13773;48.868;10.730;2022-08-05T14:48:09;33.10;75.60
25983;DHT22;13773;48.868;10.730;2022-08-05T14:50:35;32.70;75.70
25983;DHT22;13773;48.868;10.730;2022-08-05T14:53:01;32.60;75.30
25983;DHT22;13773;48.868;10.730;2022-08-05T14:55:27;32.80;75.10
25983;DHT22;13773;48.868;10.730;2022-08-05T14:57:53;32.80;74.50
25983;DHT22;13773;48.868;10.730;2022-08-05T15:00:18;33.20;75.40
25983;DHT22;13773;48.868;10.730;2022-08-05T15:02:46;33.20;74.20
25983;DHT22;13773;48.868;10.730;2022-08-05T15:05:12;33.00;74.90
25983;DHT22;13773;48.868;10.730;2022-08-05T15:07:38;33.00;75.70
25983;DHT22;13773;48.868;10.730;2022-08-05T15:10:05;33.20;73.70
25983;DHT22;13773;48.868;10.730;2022-08-05T15:12:31;33.00;73.90
25983;DHT22;13773;48.868;10.730;2022-08-05T15:14:57;31.70;75.70
25983;DHT22;13773;48.868;10.730;2022-08-05T15:17:23;31.70;76.40
25983;DHT22;13773;48.868;10.730;2022-08-05T15:19:49;32.50;75.90
25983;DHT22;13773;48.868;10.730;2022-08-05T15:22:15;32.90;75.30
25983;DHT22;13773;48.868;10.730;2022-08-05T15:24:41;33.20;74.50
25983;DHT22;13773;48.868;10.730;2022-08-05T15:27:08;32.70;74.60
25983;DHT22;13773;48.868;10.730;2022-08-05T15:29:34;32.70;74.80
25983;DHT22;13773;48.868;10.730;2022-08-05T15:32:00;32.70;74.50
25983;DHT22;13773;48.868;10.730;2022-08-05T15:34:25;32.60;74.80
25983;DHT22;13773;48.868;10.730;2022-08-05T15:36:51;32.70;74.70
25983;DHT22;13773;48.868;10.730;2022-08-05T15:39:16;32.50;75.20
25983;DHT22;13773;48.868;10.730;2022-08-05T15:41:42;32.30;75.30
25983;DHT22;13773;48.868;10.730;2022-08-05T15:44:08;32.10;76.00
25983;DHT22;13773;48.868;10.730;2022-08-05T15:46:34;31.90;75.70
25983;DHT22;13773;48.868;10.730;2022-08-05T15:48:59;31.80;76.00
25983;DHT22;13773;48.868;10.730;2022-08-05T15:51:26;31.80;76.60
25983;DHT22;13773;48.868;10.730;2022-08-05T15:53:52;31.90;76.70
25983;DHT22;13773;48.868;10.730;2022-08-05T15:56:19;32.00;75.90
25983;DHT22;13773;48.868;10.730;2022-08-05T15:58:44;32.10;75.50
25983;DHT22;13773;48.868;10.730;2022-08-05T16:01:11;31.80;75.90
25983;DHT22;13773;48.868;10.730;2022-08-05T16:03:42;31.70;76.70
25983;DHT22;13773;48.868;10.730;2022-08-05T16:06:09;31.90;76.10
25983;DHT22;13773;48.868;10.730;2022-08-05T16:08:35;31.80;76.70
25983;DHT22;13773;48.868;10.730;2022-08-05T16:11:01;32.00;76.60